Time;durP1;ratioP1;P1;durP2;ratioP2;P2;SDS_P1;SDS_P2;PMS_P1;PMS_P2;Temp;Humidity;BMP_temperature;BMP_pressure;BME280_temperature;BME280_humidity;BME280_pressure;Samples;Min_cycle;Max_cycle;Signal;HPM_P1;HPM_P2
2023/01/25 00:00:51;;;;;;;53.78;38.05;;;;;;;5.45;58.27;103658.25;5100224;28;20059;-61
2023/01/25 00:03:19;;;;;;;55.55;38.25;;;;;;;5.42;57.84;103662.97;5106664;28;20044;-60
2023/01/25 00:05:46;;;;;;;56.47;37.63;;;;;;;5.42;57.93;103653.16;5098145;28;20079;-61
2023/01/25 00:08:16;;;;;;;52.72;35.60;;;;;;;5.42;58.31;103652.31;5100013;28;20058;-61
2023/01/25 00:10:44;;;;;;;57.22;38.85;;;;;;;5.42;58.64;103654.97;5093260;28;20044;-61
2023/01/25 00:13:11;;;;;;;48.88;35.38;;;;;;;5.41;58.61;103648.78;5103148;28;20060;-61
2023/01/25 00:15:39;;;;;;;54.58;37.42;;;;;;;5.42;58.52;103653.16;5100536;28;20048;-61
2023/01/25 00:18:07;;;;;;;53.08;36.45;;;;;;;5.43;58.47;103648.66;5099065;28;20142;-61
2023/01/25 00:20:34;;;;;;;50.58;36.00;;;;;;;5.40;58.36;103648.91;5104628;28;20117;-60
2023/01/25 00:23:02;;;;;;;52.20;35.20;;;;;;;5.41;58.53;103650.59;5104854;28;20524;-60
2023/01/25 00:25:31;;;;;;;52.58;36.10;;;;;;;5.40;58.67;103647.09;5114620;28;20126;-60
2023/01/25 00:27:59;;;;;;;52.55;35.83;;;;;;;5.40;58.65;103651.56;5098810;28;20474;-61
2023/01/25 00:30:27;;;;;;;51.35;34.08;;;;;;;5.39;58.79;103648.06;5100457;28;20052;-61
2023/01/25 00:33:02;;;;;;;49.65;33.65;;;;;;;5.41;58.36;103648.78;5093262;28;20046;-61
2023/01/25 00:35:31;;;;;;;48.28;33.97;;;;;;;5.39;58.24;103649.88;5108452;28;20043;-61
2023/01/25 00:38:01;;;;;;;47.50;33.22;;;;;;;5.34;58.45;103636.06;5094041;28;20117;-61
2023/01/25 00:40:31;;;;;;;48.17;34.70;;;;;;;5.38;58.68;103642.84;5107046;28;20040;-61
2023/01/25 00:43:00;;;;;;;50.92;35.95;;;;;;;5.36;58.29;103640.28;5105204;28;20094;-61
2023/01/25 00:45:28;;;;;;;48.45;33.75;;;;;;;5.36;58.53;103639.44;5095426;28;20081;-61
2023/01/25 00:47:56;;;;;;;57.85;36.10;;;;;;;5.35;57.96;103645.75;5104970;28;20052;-61
2023/01/25 00:50:24;;;;;;;52.83;36.30;;;;;;;5.34;58.08;103642.22;5103562;28;20172;-62
2023/01/25 00:52:51;;;;;;;52.88;36.25;;;;;;;5.32;58.42;103649.50;5104006;28;20048;-61
2023/01/25 00:55:19;;;;;;;50.40;35.38;;;;;;;5.32;58.44;103640.66;5104040;28;20446;-61
2023/01/25 00:57:48;;;;;;;49.15;34.10;;;;;;;5.31;58.83;103642.47;5099410;28;20078;-61
2023/01/25 01:00:17;;;;;;;51.35;36.25;;;;;;;5.30;59.02;103640.78;5102097;28;20123;-62
2023/01/25 01:02:44;;;;;;;47.78;33.35;;;;;;;5.30;58.84;103639.91;5098197;28;20048;-61
2023/01/25 01:05:12;;;;;;;51.17;34.92;;;;;;;5.30;58.61;103642.59;5103241;28;20120;-62
2023/01/25 01:07:40;;;;;;;51.90;36.00;;;;;;;5.30;58.58;103640.78;5100698;28;20093;-61
2023/01/25 01:10:08;;;;;;;55.20;36.47;;;;;;;5.30;58.58;103629.25;5105832;28;20071;-61
2023/01/25 01:12:36;;;;;;;55.22;36.88;;;;;;;5.30;58.45;103634.59;5099701;28;20047;-62
2023/01/25 01:15:06;;;;;;;53.08;35.97;;;;;;;5.28;58.69;103626.72;5093294;28;20648;-61
2023/01/25 01:17:34;;;;;;;51.85;34.80;;;;;;;5.28;58.74;103624.03;5096959;28;20048;-62
2023/01/25 01:20:02;;;;;;;51.17;34.53;;;;;;;5.28;58.82;103623.19;5100580;28;20069;-63
2023/01/25 01:22:30;;;;;;;51.67;34.53;;;;;;;5.28;59.06;103628.53;5098300;28;20111;-61
2023/01/25 01:24:58;;;;;;;51.45;33.55;;;;;;;5.26;58.80;103622.47;5103042;28;20047;-62
2023/01/25 01:27:25;;;;;;;45.03;32.00;;;;;;;5.24;59.14;103620.75;5110366;28;20486;-62
2023/01/25 01:29:53;;;;;;;52.35;35.70;;;;;;;5.27;58.93;103624.16;5098926;28;20044;-62
2023/01/25 01:32:22;;;;;;;53.55;36.47;;;;;;;5.23;58.11;103623.56;5101758;28;20073;-61
2023/01/25 01:34:50;;;;;;;50.97;34.80;;;;;;;5.23;58.30;103623.56;5103308;28;20078;-62
2023/01/25 01:37:18;;;;;;;48.55;33.42;;;;;;;5.22;58.30;103621.84;5106595;28;20058;-62
2023/01/25 01:39:45;;;;;;;51.75;35.08;;;;;;;5.22;58.99;103622.69;5103525;28;20481;-62
2023/01/25 01:42:13;;;;;;;51.65;34.67;;;;;;;5.21;58.55;103629.00;5101277;28;20071;-61
2023/01/25 01:44:46;;;;;;;53.22;35.22;;;;;;;5.22;58.91;103625.38;5089356;28;20084;-62
2023/01/25 01:47:19;;;;;;;50.30;33.88;;;;;;;5.21;58.75;103630.81;5106953;28;20051;-62
2023/01/25 01:49:52;;;;;;;50.17;34.08;;;;;;;5.21;58.64;103630.81;5090316;28;20071;-62
2023/01/25 01:52:24;;;;;;;50.05;34.53;;;;;;;5.20;58.53;103632.63;5109341;28;20083;-62
2023/01/25 01:54:56;;;;;;;55.47;37.00;;;;;;;5.16;58.68;103619.69;5111092;28;20044;-62
2023/01/25 01:57:27;;;;;;;51.28;33.63;;;;;;;5.18;58.40;103633.75;5088864;28;20120;-61
2023/01/25 01:59:59;;;;;;;48.08;34.20;;;;;;;5.14;58.31;103627.81;5102049;28;20066;-62
2023/01/25 02:02:27;;;;;;;50.78;34.83;;;;;;;5.17;58.70;103627.56;5098457;28;20075;-62
2023/01/25 02:05:00;;;;;;;54.25;36.30;;;;;;;5.17;58.94;103632.91;5102949;28;20051;-62
2023/01/25 02:07:32;;;;;;;50.70;35.53;;;;;;;5.17;59.06;103629.38;5100613;28;20048;-61
2023/01/25 02:10:03;;;;;;;59.42;39.08;;;;;;;5.17;58.05;103624.06;5101981;28;20039;-62
2023/01/25 02:12:32;;;;;;;53.50;35.97;;;;;;;5.14;58.22;103626.97;5095564;28;20067;-62
2023/01/25 02:14:59;;;;;;;55.92;36.53;;;;;;;5.14;58.45;103622.47;5097809;28;20087;-61
2023/01/25 02:17:29;;;;;;;59.65;37.92;;;;;;;5.15;58.30;103623.31;5103186;28;20086;-63
2023/01/25 02:20:02;;;;;;;57.30;38.25;;;;;;;5.13;58.52;103623.44;5109796;28;20044;-61
2023/01/25 02:22:39;;;;;;;53.40;36.72;;;;;;;5.13;59.10;103623.44;5097884;28;20048;-64
2023/01/25 02:25:10;;;;;;;64.50;41.17;;;;;;;5.09;58.50;103610.47;5095865;28;20112;-62
2023/01/25 02:27:40;;;;;;;56.28;37.85;;;;;;;5.13;59.11;103617.25;5103403;28;20155;-62
2023/01/25 02:30:10;;;;;;;61.10;39.70;;;;;;;5.13;58.78;103622.59;5100227;28;20051;-61
2023/01/25 02:32:37;;;;;;;57.55;39.38;;;;;;;5.13;58.66;103618.13;5101672;28;20058;-62
2023/01/25 02:35:06;;;;;;;56.92;38.83;;;;;;;5.12;58.73;103616.41;5103748;28;20061;-61
2023/01/25 02:37:35;;;;;;;58.60;38.60;;;;;;;5.11;58.94;103609.38;5101728;28;20106;-61
2023/01/25 02:40:04;;;;;;;63.47;41.70;;;;;;;5.12;58.66;103599.56;5098239;28;20119;-62
2023/01/25 02:42:34;;;;;;;57.97;37.78;;;;;;;5.13;58.56;103601.28;5100278;28;20052;-61
2023/01/25 02:45:02;;;;;;;62.28;41.75;;;;;;;5.12;58.78;103592.44;5107086;28;20048;-61
2023/01/25 02:47:30;;;;;;;57.00;38.70;;;;;;;5.12;58.89;103592.44;5101417;28;20047;-62
2023/01/25 02:49:57;;;;;;;65.97;40.53;;;;;;;5.12;59.05;103597.75;5103727;28;20047;-62
2023/01/25 02:52:25;;;;;;;58.83;39.33;;;;;;;5.13;58.39;103590.59;5100360;28;20135;-62
2023/01/25 02:54:53;;;;;;;59.67;38.20;;;;;;;5.14;58.65;103592.31;5099583;28;20058;-61
2023/01/25 02:57:21;;;;;;;58.67;37.88;;;;;;;5.12;58.83;103587.09;5102102;28;20064;-62
2023/01/25 02:59:51;;;;;;;55.17;38.17;;;;;;;5.13;59.14;103588.78;5096721;28;20045;-62
2023/01/25 03:02:18;;;;;;;57.72;36.33;;;;;;;5.13;58.89;103587.94;5102010;28;20051;-61
2023/01/25 03:04:46;;;;;;;54.38;36.45;;;;;;;5.13;58.58;103595.94;5100904;28;20048;-62
2023/01/25 03:07:14;;;;;;;57.22;38.08;;;;;;;5.12;58.70;103592.44;5101348;28;20044;-62
2023/01/25 03:09:42;;;;;;;54.95;35.92;;;;;;;5.13;58.67;103594.13;5094902;28;20142;-62
2023/01/25 03:12:09;;;;;;;58.42;39.08;;;;;;;5.12;58.97;103592.44;5105516;28;20052;-61
2023/01/25 03:14:37;;;;;;;57.20;39.08;;;;;;;5.12;58.69;103589.75;5101728;28;20048;-62
2023/01/25 03:17:06;;;;;;;63.17;40.75;;;;;;;5.12;58.61;103588.91;5106089;28;20066;-62
2023/01/25 03:19:34;;;;;;;62.30;40.75;;;;;;;5.11;58.34;103577.41;5102335;28;20103;-62
2023/01/25 03:22:02;;;;;;;61.25;40.65;;;;;;;5.10;58.66;103572.19;5102389;28;20044;-61
2023/01/25 03:24:30;;;;;;;58.88;38.75;;;;;;;5.09;58.22;103576.66;5105118;28;20102;-62
2023/01/25 03:27:13;;;;;;;58.40;39.38;;;;;;;5.10;58.50;103569.53;5106991;28;20048;-62
2023/01/25 03:29:41;;;;;;;60.33;38.58;;;;;;;5.08;58.56;103574.13;5093646;28;20835;-62
2023/01/25 03:32:10;;;;;;;60.85;40.45;;;;;;;5.07;58.75;103567.09;5108685;28;20074;-62
2023/01/25 03:34:39;;;;;;;59.53;39.03;;;;;;;5.01;58.66;103557.75;5109399;28;20455;-62
2023/01/25 03:37:06;;;;;;;59.90;39.17;;;;;;;5.07;58.10;103562.59;5104268;28;20489;-62
2023/01/25 03:39:34;;;;;;;58.80;40.83;;;;;;;5.07;58.67;103564.44;5105160;28;20107;-62
2023/01/25 03:42:02;;;;;;;61.50;40.47;;;;;;;5.04;58.35;103557.50;5105094;28;20070;-61
2023/01/25 03:44:30;;;;;;;59.17;39.60;;;;;;;5.03;59.06;103547.81;5099251;28;20080;-62
2023/01/25 03:46:57;;;;;;;62.40;40.17;;;;;;;5.02;58.29;103551.47;5108353;28;20071;-61
2023/01/25 03:49:27;;;;;;;63.50;40.85;;;;;;;5.02;58.93;103547.94;5098566;28;20104;-61
2023/01/25 03:51:56;;;;;;;62.50;40.80;;;;;;;5.02;58.90;103553.28;5102717;28;20134;-61
2023/01/25 03:54:24;;;;;;;61.15;39.00;;;;;;;5.01;58.46;103555.09;5103737;28;20040;-62
2023/01/25 03:56:52;;;;;;;60.28;38.88;;;;;;;5.02;58.91;103561.28;5104452;28;20123;-62
2023/01/25 03:59:22;;;;;;;58.00;39.10;;;;;;;5.02;59.02;103570.13;5104953;28;20091;-63
2023/01/25 04:01:50;;;;;;;59.83;39.33;;;;;;;5.00;58.84;103564.06;5117742;28;20040;-61
2023/01/25 04:04:18;;;;;;;59.33;39.50;;;;;;;5.00;59.00;103561.38;5097741;28;20044;-61
2023/01/25 04:06:47;;;;;;;59.35;38.88;;;;;;;5.00;58.85;103556.06;5097346;28;20050;-61
2023/01/25 04:09:14;;;;;;;61.63;40.40;;;;;;;5.00;58.55;103557.88;5096001;28;20048;-62
2023/01/25 04:11:42;;;;;;;55.10;37.08;;;;;;;4.98;58.61;103550.00;5105173;28;20116;-61
2023/01/25 04:14:10;;;;;;;53.58;36.30;;;;;;;4.98;59.04;103552.66;5092319;28;20060;-62
2023/01/25 04:16:38;;;;;;;56.10;36.75;;;;;;;4.97;58.51;103548.31;5101375;28;20044;-61
2023/01/25 04:19:06;;;;;;;56.15;37.05;;;;;;;4.97;58.23;103545.63;5105547;28;20197;-62
2023/01/25 04:21:33;;;;;;;56.67;38.15;;;;;;;4.97;58.46;103553.63;5098505;28;20082;-62
2023/01/25 04:24:03;;;;;;;62.97;39.70;;;;;;;4.96;58.97;103543.09;5100951;28;20501;-61
2023/01/25 04:26:31;;;;;;;57.08;37.92;;;;;;;4.96;59.27;103540.41;5103708;28;20059;-62
2023/01/25 04:28:58;;;;;;;56.92;38.78;;;;;;;4.92;59.09;103537.16;5104160;28;20072;-62
2023/01/25 04:31:26;;;;;;;56.30;37.80;;;;;;;4.93;58.73;103546.00;5104020;28;20070;-62
2023/01/25 04:33:55;;;;;;;53.25;35.50;;;;;;;4.94;58.61;103542.34;5112187;28;20052;-62
2023/01/25 04:36:23;;;;;;;58.70;38.20;;;;;;;4.93;59.16;103541.50;5113192;28;20054;-62
2023/01/25 04:38:50;;;;;;;54.78;37.40;;;;;;;4.94;58.26;103534.38;5102549;28;20051;-62
2023/01/25 04:41:20;;;;;;;55.65;37.65;;;;;;;4.93;58.33;103535.34;5112463;28;20103;-62
2023/01/25 04:43:47;;;;;;;54.95;37.75;;;;;;;4.91;58.51;103535.44;5103066;28;20079;-62
2023/01/25 04:46:15;;;;;;;57.90;39.08;;;;;;;4.91;58.36;103535.44;5107932;28;20068;-62
2023/01/25 04:48:43;;;;;;;55.47;37.75;;;;;;;4.90;58.40;103533.75;5106409;28;20052;-62
2023/01/25 04:51:12;;;;;;;55.92;36.90;;;;;;;4.89;58.10;103534.72;5104126;28;20563;-62
2023/01/25 04:53:40;;;;;;;58.72;39.78;;;;;;;4.88;58.19;103530.34;5102395;28;20052;-62
2023/01/25 04:56:08;;;;;;;53.53;35.95;;;;;;;4.85;58.26;103530.59;5101209;28;20068;-62
2023/01/25 04:58:37;;;;;;;56.42;37.65;;;;;;;4.85;58.24;103527.94;5104223;28;20123;-62
2023/01/25 05:01:05;;;;;;;55.17;36.95;;;;;;;4.86;58.39;103518.97;5100957;28;20076;-62
2023/01/25 05:03:33;;;;;;;55.20;36.60;;;;;;;4.83;58.00;103513.88;5098427;28;20086;-62
2023/01/25 05:06:00;;;;;;;56.95;37.67;;;;;;;4.85;57.98;103520.78;5101488;28;20126;-62
2023/01/25 05:08:28;;;;;;;51.60;36.70;;;;;;;4.85;58.49;103509.28;5107872;28;20048;-62
2023/01/25 05:10:56;;;;;;;55.78;37.28;;;;;;;4.83;58.04;103514.72;5099158;28;20112;-63
2023/01/25 05:13:24;;;;;;;55.28;38.22;;;;;;;4.84;57.84;103508.44;5103996;28;20052;-62
2023/01/25 05:15:53;;;;;;;57.85;37.35;;;;;;;4.84;57.96;103496.94;5102071;28;20051;-62
2023/01/25 05:18:21;;;;;;;56.40;37.97;;;;;;;4.84;58.18;103502.25;5096707;28;20454;-62
2023/01/25 05:20:54;;;;;;;56.25;37.67;;;;;;;4.80;57.70;103500.78;5101118;28;20082;-62
2023/01/25 05:23:22;;;;;;;56.15;36.42;;;;;;;4.83;58.14;103508.56;5102734;28;20080;-62
2023/01/25 05:28:35;;;;;;;54.10;36.22;;;;;;;4.83;58.71;103504.06;5104980;28;20885;-62
2023/01/25 05:31:05;;;;;;;54.63;37.00;;;;;;;4.81;58.38;103502.50;5102191;28;20081;-62
2023/01/25 05:33:33;;;;;;;51.35;35.63;;;;;;;4.81;58.50;103500.66;5103047;28;20044;-62
2023/01/25 05:36:00;;;;;;;52.80;36.00;;;;;;;4.82;59.02;103506.84;5102065;28;20135;-62
2023/01/25 05:38:29;;;;;;;53.25;36.88;;;;;;;4.81;58.76;103500.66;5107968;28;20131;-62
2023/01/25 05:40:58;;;;;;;52.33;35.42;;;;;;;4.82;58.90;103506.84;5104018;28;20051;-62
2023/01/25 05:43:25;;;;;;;56.28;37.22;;;;;;;4.81;59.20;103503.34;5113360;28;20078;-62
2023/01/25 05:45:53;;;;;;;53.97;37.47;;;;;;;4.82;59.08;103504.19;5102409;28;20078;-62
2023/01/25 05:48:23;;;;;;;55.60;37.17;;;;;;;4.81;59.10;103498.00;5109506;28;20049;-62
2023/01/25 05:50:50;;;;;;;58.42;38.92;;;;;;;4.81;59.55;103507.81;5102071;28;20048;-62
2023/01/25 05:53:18;;;;;;;55.25;38.42;;;;;;;4.81;59.02;103503.34;5104515;28;20044;-62
2023/01/25 05:55:46;;;;;;;59.95;39.38;;;;;;;4.82;58.96;103498.84;5099176;28;20048;-62
2023/01/25 05:58:13;;;;;;;56.10;38.63;;;;;;;4.82;58.92;103496.19;5096776;28;20055;-62
2023/01/25 06:00:41;;;;;;;58.63;39.28;;;;;;;4.83;58.34;103497.88;5094272;28;20130;-63
2023/01/25 06:03:09;;;;;;;58.35;38.20;;;;;;;4.81;59.18;103498.00;5097935;28;20059;-65
2023/01/25 06:05:38;;;;;;;55.30;37.00;;;;;;;4.81;59.13;103497.16;5100133;28;20060;-65
2023/01/25 06:08:06;;;;;;;58.67;39.63;;;;;;;4.82;59.10;103499.72;5103051;28;20075;-62
2023/01/25 06:10:34;;;;;;;59.28;39.80;;;;;;;4.83;59.17;103497.88;5099711;28;20048;-63
2023/01/25 06:13:02;;;;;;;59.13;38.10;;;;;;;4.82;58.81;103499.72;5103046;28;20044;-63
2023/01/25 06:15:30;;;;;;;60.30;38.20;;;;;;;4.81;58.61;103490.03;5094241;28;20062;-62
2023/01/25 06:17:57;;;;;;;57.30;37.95;;;;;;;4.81;58.97;103494.50;5098125;28;20474;-62
2023/01/25 06:20:25;;;;;;;57.08;37.70;;;;;;;4.89;59.26;103492.94;5094455;28;20472;-62
2023/01/25 06:22:54;;;;;;;57.15;38.97;;;;;;;5.02;58.57;103490.16;5099009;28;20079;-63
2023/01/25 06:25:22;;;;;;;58.17;38.25;;;;;;;5.15;57.94;103490.03;5102295;28;20491;-61
2023/01/25 06:27:50;;;;;;;60.70;39.03;;;;;;;5.28;57.58;103492.56;5100459;28;20046;-62
2023/01/25 06:30:18;;;;;;;56.25;37.20;;;;;;;5.44;57.22;103488.53;5083341;28;20076;-61
2023/01/25 06:32:45;;;;;;;60.15;40.10;;;;;;;5.59;56.75;103486.44;5095404;28;20611;-62
2023/01/25 06:35:13;;;;;;;56.50;37.38;;;;;;;5.73;56.39;103488.84;5098851;28;20055;-59
2023/01/25 06:37:41;;;;;;;53.50;35.40;;;;;;;5.90;55.92;103479.47;5103754;28;20048;-60
2023/01/25 06:40:11;;;;;;;54.70;37.08;;;;;;;5.96;55.46;103486.13;5101552;28;20185;-59
2023/01/25 06:42:39;;;;;;;57.75;37.40;;;;;;;5.92;55.72;103490.88;5103344;28;20040;-60
2023/01/25 06:45:08;;;;;;;58.50;38.33;;;;;;;5.81;56.08;103486.41;5101308;28;20082;-59
2023/01/25 06:47:36;;;;;;;56.42;37.70;;;;;;;5.67;56.33;103489.34;5108875;28;20048;-58
2023/01/25 06:50:04;;;;;;;57.67;39.33;;;;;;;5.55;56.97;103487.66;5106250;28;20079;-59
2023/01/25 06:52:35;;;;;;;65.60;40.53;;;;;;;5.45;57.04;103484.03;4740030;28;10000211;-60
2023/01/25 06:55:03;;;;;;;58.13;38.47;;;;;;;5.35;57.10;103486.59;4749257;28;10000654;-59
2023/01/25 06:57:32;;;;;;;58.78;40.45;;;;;;;5.29;57.36;103488.91;5100144;28;20044;-59
2023/01/25 07:00:00;;;;;;;62.10;41.63;;;;;;;5.22;57.51;103486.72;5097500;28;20058;-60
2023/01/25 07:02:28;;;;;;;62.67;40.50;;;;;;;5.17;57.54;103482.78;5094627;28;20569;-60
2023/01/25 07:04:56;;;;;;;72.10;44.35;;;;;;;4.99;57.39;103490.41;5100046;28;20087;-59
2023/01/25 07:07:23;;;;;;;68.43;42.03;;;;;;;4.95;57.43;103488.09;5095594;28;20394;-59
2023/01/25 07:09:51;;;;;;;58.80;37.85;;;;;;;4.94;58.10;103478.41;5096397;28;20055;-60
2023/01/25 07:12:19;;;;;;;64.43;42.20;;;;;;;4.91;58.07;103484.81;5102932;28;20036;-58
2023/01/25 07:14:48;;;;;;;66.30;41.72;;;;;;;4.87;58.36;103478.88;5101493;28;20067;-59
2023/01/25 07:17:16;;;;;;;66.10;42.10;;;;;;;4.87;58.35;103480.69;5099067;28;20048;-57
2023/01/25 07:19:43;;;;;;;68.88;44.17;;;;;;;4.85;58.35;103490.63;5096400;28;20044;-64
2023/01/25 07:22:11;;;;;;;63.25;41.90;;;;;;;4.77;58.46;103495.69;5102564;28;20076;-58
2023/01/25 07:24:39;;;;;;;63.80;41.95;;;;;;;4.76;58.09;103486.88;5106402;28;20103;-58
2023/01/25 07:27:07;;;;;;;62.90;41.40;;;;;;;4.75;58.32;103481.66;5105882;28;20107;-58
2023/01/25 07:29:35;;;;;;;64.53;41.75;;;;;;;4.74;58.75;103483.47;5099943;28;20075;-58
2023/01/25 07:32:05;;;;;;;67.57;41.85;;;;;;;4.74;58.26;103485.28;5106298;28;20108;-58
2023/01/25 07:34:33;;;;;;;67.60;41.47;;;;;;;4.72;58.26;103487.22;5105979;28;20040;-58
2023/01/25 07:37:00;;;;;;;65.00;41.80;;;;;;;4.72;58.21;103481.88;5104774;28;20131;-59
2023/01/25 07:39:28;;;;;;;66.68;42.58;;;;;;;4.70;58.46;103479.34;5100462;28;20071;-58
2023/01/25 07:41:56;;;;;;;65.05;41.58;;;;;;;4.69;58.62;103471.47;5105488;28;20070;-58
2023/01/25 07:44:24;;;;;;;65.03;41.58;;;;;;;4.68;58.70;103475.94;5103949;28;20054;-60
2023/01/25 07:46:53;;;;;;;65.70;41.80;;;;;;;4.69;58.38;103474.97;5102823;28;20048;-58
2023/01/25 07:49:23;;;;;;;66.07;40.28;;;;;;;4.67;57.92;103479.59;5103364;28;20040;-59
2023/01/25 07:51:50;;;;;;;62.38;40.58;;;;;;;4.68;58.71;103481.28;5100922;28;20382;-58
2023/01/25 07:54:18;;;;;;;69.22;43.75;;;;;;;4.67;58.28;103476.06;5099239;28;20138;-58
2023/01/25 07:56:46;;;;;;;65.00;40.97;;;;;;;4.66;58.79;103472.56;5099046;28;20098;-58
2023/01/25 07:59:14;;;;;;;61.33;39.97;;;;;;;4.64;58.57;103468.31;5104632;28;20056;-59
2023/01/25 08:01:42;;;;;;;66.07;40.97;;;;;;;4.64;58.54;103471.81;5104788;28;20048;-59
2023/01/25 08:04:09;;;;;;;65.88;42.13;;;;;;;4.64;58.40;103473.66;5105494;28;20458;-58
2023/01/25 08:06:39;;;;;;;63.38;39.55;;;;;;;4.63;58.59;103471.94;5099241;28;20044;-59
2023/01/25 08:09:08;;;;;;;59.78;39.95;;;;;;;4.62;58.03;103472.91;5104956;28;20052;-58
2023/01/25 08:11:36;;;;;;;68.57;42.05;;;;;;;4.61;58.40;103473.88;5099461;28;20049;-58
2023/01/25 08:14:04;;;;;;;65.47;41.47;;;;;;;4.60;57.75;103465.03;5101317;28;20048;-58
2023/01/25 08:16:32;;;;;;;65.18;41.38;;;;;;;4.61;57.57;103472.06;5099844;28;20058;-58
2023/01/25 08:19:01;;;;;;;66.22;41.67;;;;;;;4.61;57.44;103474.72;5100696;28;20068;-58
2023/01/25 08:21:32;;;;;;;64.75;40.97;;;;;;;4.60;57.35;103470.38;5104472;28;20052;-58
2023/01/25 08:24:03;;;;;;;62.35;39.80;;;;;;;4.57;58.09;103463.47;5100244;28;20533;-59
2023/01/25 08:26:32;;;;;;;63.13;40.60;;;;;;;4.56;57.92;103460.91;5104980;28;20059;-59
2023/01/25 08:29:00;;;;;;;64.47;41.65;;;;;;;4.56;58.53;103467.09;5103525;28;20091;-60
2023/01/25 08:31:30;;;;;;;61.45;40.30;;;;;;;4.56;58.27;103469.75;5102240;28;20047;-58
2023/01/25 08:33:59;;;;;;;67.15;42.45;;;;;;;4.56;58.39;103463.59;5100490;28;20203;-58
2023/01/25 08:36:28;;;;;;;65.22;42.10;;;;;;;4.56;58.06;103460.91;5103350;28;20052;-59
2023/01/25 08:38:57;;;;;;;63.97;40.58;;;;;;;4.56;58.35;103455.59;5103149;28;20071;-58
2023/01/25 08:41:27;;;;;;;66.68;40.72;;;;;;;4.55;58.80;103459.22;5099089;28;20059;-58
2023/01/25 08:43:56;;;;;;;63.80;40.25;;;;;;;4.56;58.82;103460.91;5104388;28;20266;-58
2023/01/25 08:46:26;;;;;;;65.47;41.88;;;;;;;4.56;58.22;103450.25;5102847;28;20055;-58
2023/01/25 08:48:58;;;;;;;68.65;42.08;;;;;;;4.55;57.28;103454.75;5103281;28;20048;-59
2023/01/25 08:51:26;;;;;;;67.38;39.47;;;;;;;4.52;57.75;103448.81;5100024;28;20047;-60
2023/01/25 08:53:54;;;;;;;69.47;42.47;;;;;;;4.51;57.54;103458.59;5104379;28;20051;-59
2023/01/25 08:56:22;;;;;;;65.85;40.78;;;;;;;4.51;57.49;103465.75;5097593;28;20136;-59
2023/01/25 08:58:51;;;;;;;67.07;41.70;;;;;;;4.48;56.85;103458.84;5102610;28;20052;-59
2023/01/25 09:01:20;;;;;;;67.18;41.13;;;;;;;4.50;57.19;103466.72;5103225;28;20097;-59
2023/01/25 09:03:50;;;;;;;63.70;39.72;;;;;;;4.49;56.90;103455.22;5104275;28;20044;-59
2023/01/25 09:06:19;;;;;;;68.07;42.22;;;;;;;4.48;57.15;103458.84;5102578;28;20081;-59
2023/01/25 09:08:48;;;;;;;65.78;41.25;;;;;;;4.41;57.93;103438.13;5103783;28;20044;-59
2023/01/25 09:11:17;;;;;;;62.38;39.63;;;;;;;4.47;58.55;103443.84;5095151;28;20067;-58
2023/01/25 09:13:47;;;;;;;64.82;41.50;;;;;;;4.48;58.57;103434.88;5103837;28;20116;-58
2023/01/25 09:16:19;;;;;;;66.30;40.38;;;;;;;4.47;58.55;103433.19;5101876;28;20138;-58
2023/01/25 09:18:47;;;;;;;65.97;41.53;;;;;;;4.48;58.16;103432.22;5100982;28;20044;-58
2023/01/25 09:21:18;;;;;;;63.78;40.22;;;;;;;4.50;58.73;103434.75;5101552;28;20051;-58
2023/01/25 09:23:49;;;;;;;66.32;42.08;;;;;;;4.48;58.11;103426.88;5103533;28;20069;-59
2023/01/25 09:26:30;;;;;;;65.90;40.50;;;;;;;4.51;58.42;103431.13;5097382;28;20052;-59
2023/01/25 09:28:59;;;;;;;67.10;41.60;;;;;;;4.51;58.17;103431.97;5102572;28;20048;-59
2023/01/25 09:31:28;;;;;;;67.68;42.50;;;;;;;4.51;58.10;103431.97;5103205;28;20079;-58
2023/01/25 09:33:57;;;;;;;66.32;41.85;;;;;;;4.51;58.06;103428.47;5103751;28;20055;-58
2023/01/25 09:36:25;;;;;;;64.43;41.25;;;;;;;4.47;58.20;103425.19;5093652;28;20044;-58
2023/01/25 09:38:53;;;;;;;68.88;42.08;;;;;;;4.47;57.47;103427.84;5103429;28;20044;-58
2023/01/25 09:41:44;;;;;;;70.00;41.17;;;;;;;4.46;57.50;103431.47;5103473;28;20494;-59
2023/01/25 09:44:29;;;;;;;69.53;42.05;;;;;;;4.46;57.39;103427.97;5091965;28;20048;-59
2023/01/25 09:47:01;;;;;;;68.88;41.85;;;;;;;4.42;57.80;103432.69;5101202;28;20079;-59
2023/01/25 09:49:49;;;;;;;72.45;43.38;;;;;;;4.41;57.92;103431.00;5103055;28;20079;-59
2023/01/25 09:52:39;;;;;;;69.68;42.70;;;;;;;4.45;57.01;103423.63;5102703;28;20370;-59
2023/01/25 09:55:14;;;;;;;70.38;42.67;;;;;;;4.40;57.24;103431.97;5103388;28;20044;-59
2023/01/25 09:57:45;;;;;;;66.30;42.08;;;;;;;4.39;58.08;103427.59;5097744;28;20047;-59
2023/01/25 10:00:19;;;;;;;65.88;40.13;;;;;;;4.41;58.57;103430.16;5102151;28;20148;-59
2023/01/25 10:02:56;;;;;;;67.15;41.58;;;;;;;4.42;58.54;103430.03;5103171;28;20548;-59
2023/01/25 10:05:30;;;;;;;67.55;42.85;;;;;;;4.44;58.41;103428.09;5099278;28;20111;-59
2023/01/25 10:08:03;;;;;;;65.53;40.08;;;;;;;4.45;58.34;103420.97;5096521;28;20403;-59
2023/01/25 10:10:36;;;;;;;66.63;41.28;;;;;;;4.46;58.42;103420.84;5091497;28;20127;-59
2023/01/25 10:13:04;;;;;;;69.90;41.97;;;;;;;4.45;58.30;103421.81;5102782;28;20075;-60
2023/01/25 10:15:39;;;;;;;67.28;41.30;;;;;;;4.43;58.20;103413.09;5101495;28;20139;-59
2023/01/25 10:18:19;;;;;;;70.55;41.58;;;;;;;4.44;58.30;103411.28;5101687;28;20047;-60
2023/01/25 10:20:52;;;;;;;71.03;43.20;;;;;;;4.45;58.14;103402.31;5102281;28;20048;-59
2023/01/25 10:23:40;;;;;;;70.82;42.22;;;;;;;4.45;58.41;103403.16;5102209;28;20036;-59
2023/01/25 10:26:14;;;;;;;67.20;41.72;;;;;;;4.45;58.00;103407.63;5091325;28;20048;-59
2023/01/25 10:28:49;;;;;;;68.60;42.42;;;;;;;4.44;58.18;103408.59;5100417;28;20048;-59
2023/01/25 10:31:19;;;;;;;70.97;43.35;;;;;;;4.42;58.82;103408.72;5101835;28;20078;-59
2023/01/25 10:33:49;;;;;;;64.40;40.08;;;;;;;4.43;58.14;103404.25;5102696;28;20047;-59
2023/01/25 10:36:21;;;;;;;65.90;41.63;;;;;;;4.40;58.80;103400.00;5102795;28;20078;-59
2023/01/25 10:38:49;;;;;;;70.47;43.58;;;;;;;4.40;57.86;103393.84;5095315;28;20048;-59
2023/01/25 10:41:23;;;;;;;68.32;41.47;;;;;;;4.40;57.85;103391.19;5102993;28;20336;-59
2023/01/25 10:44:20;;;;;;;71.50;43.38;;;;;;;4.37;58.64;103375.44;5098766;28;20083;-59
2023/01/25 10:46:40;;;;;;;73.90;42.25;;;;;;;4.36;58.12;103365.75;5095693;28;20083;-59
2023/01/25 10:49:22;;;;;;;69.90;44.30;;;;;;;4.35;58.05;103366.72;5101540;28;20071;-59
2023/01/25 10:51:50;;;;;;;71.78;44.92;;;;;;;4.29;58.04;103353.88;5102352;28;20087;-60
2023/01/25 10:54:18;;;;;;;76.45;44.20;;;;;;;4.30;58.06;103348.44;5101841;28;20076;-59
2023/01/25 10:56:46;;;;;;;72.95;42.88;;;;;;;4.32;57.57;103335.00;5099073;28;20135;-60
2023/01/25 10:59:22;;;;;;;70.65;43.85;;;;;;;4.33;57.61;103339.38;5090141;28;20048;-59
2023/01/25 11:01:51;;;;;;;76.05;45.65;;;;;;;4.32;58.30;103330.53;5102490;28;20087;-59
2023/01/25 11:04:32;;;;;;;73.55;43.28;;;;;;;4.33;58.32;103337.56;5097310;28;20051;-59
2023/01/25 11:07:01;;;;;;;68.40;43.42;;;;;;;4.24;58.00;103332.94;5101229;28;20073;-60
2023/01/25 11:09:38;;;;;;;74.35;43.67;;;;;;;4.19;58.52;103325.31;5102985;28;20138;-59
2023/01/25 11:12:17;;;;;;;74.15;43.90;;;;;;;4.28;58.36;103318.44;5107611;28;20543;-60
2023/01/25 11:14:48;;;;;;;74.15;42.83;;;;;;;4.40;57.48;103314.81;5097664;28;20044;-59
2023/01/25 11:17:25;;;;;;;67.47;41.33;;;;;;;4.58;57.54;103301.84;5102353;28;20497;-59
2023/01/25 11:20:17;;;;;;;73.07;44.55;;;;;;;4.77;57.10;103303.91;5098651;28;20048;-59
2023/01/25 11:22:52;;;;;;;72.68;42.55;;;;;;;4.98;56.06;103299.50;5102230;28;20043;-58
2023/01/25 11:25:28;;;;;;;69.80;40.83;;;;;;;5.17;55.94;103290.84;5098455;28;20078;-59
2023/01/25 11:28:11;;;;;;;70.65;43.08;;;;;;;5.34;55.10;103289.41;5094747;28;20052;-59
2023/01/25 11:30:39;;;;;;;70.95;43.15;;;;;;;5.50;54.51;103282.66;5104409;28;20036;-61